sensor_id;sensor_type;location;lat;lon;timestamp;temperature;humidity
35607;DHT22;21729;58.392;15.656;2023-07-28T00:00:55;12.10;99.90
35607;DHT22;21729;58.392;15.656;2023-07-28T00:03:22;12.00;99.90
35607;DHT22;21729;58.392;15.656;2023-07-28T00:05:50;12.10;99.90
35607;DHT22;21729;58.392;15.656;2023-07-28T00:08:17;12.10;99.90
35607;DHT22;21729;58.392;15.656;2023-07-28T00:10:44;12.10;99.90
35607;DHT22;21729;58.392;15.656;2023-07-28T00:13:11;12.10;99.90
35607;DHT22;21729;58.392;15.656;2023-07-28T00:15:38;12.10;99.90
35607;DHT22;21729;58.392;15.656;2023-07-28T00:18:06;12.20;99.90
35607;DHT22;21729;58.392;15.656;2023-07-28T00:20:34;12.30;99.90
35607;DHT22;21729;58.392;15.656;2023-07-28T00:23:01;12.30;99.90
35607;DHT22;21729;58.392;15.656;2023-07-28T00:25:28;12.30;99.90
35607;DHT22;21729;58.392;15.656;2023-07-28T00:27:55;12.40;99.90
35607;DHT22;21729;58.392;15.656;2023-07-28T00:30:22;12.40;99.90
35607;DHT22;21729;58.392;15.656;2023-07-28T00:32:49;12.50;99.90
35607;DHT22;21729;58.392;15.656;2023-07-28T00:35:18;12.50;99.90
35607;DHT22;21729;58.392;15.656;2023-07-28T00:37:45;12.50;99.90
35607;DHT22;21729;58.392;15.656;2023-07-28T00:40:12;12.20;99.90
35607;DHT22;21729;58.392;15.656;2023-07-28T00:42:40;12.50;99.90
35607;DHT22;21729;58.392;15.656;2023-07-28T00:45:08;12.40;99.90
35607;DHT22;21729;58.392;15.656;2023-07-28T00:47:35;12.30;99.90
35607;DHT22;21729;58.392;15.656;2023-07-28T00:50:03;12.30;99.90
35607;DHT22;21729;58.392;15.656;2023-07-28T00:52:32;12.30;99.90
35607;DHT22;21729;58.392;15.656;2023-07-28T00:54:59;12.30;99.90
35607;DHT22;21729;58.392;15.656;2023-07-28T00:57:26;12.30;99.90
35607;DHT22;21729;58.392;15.656;2023-07-28T00:59:54;12.40;99.90
35607;DHT22;21729;58.392;15.656;2023-07-28T01:02:21;12.40;99.90
35607;DHT22;21729;58.392;15.656;2023-07-28T01:04:49;12.40;99.90
35607;DHT22;21729;58.392;15.656;2023-07-28T01:07:21;12.40;99.90
35607;DHT22;21729;58.392;15.656;2023-07-28T01:09:57;12.40;99.90
35607;DHT22;21729;58.392;15.656;2023-07-28T01:12:26;12.40;99.90
35607;DHT22;21729;58.392;15.656;2023-07-28T01:14:53;12.40;99.90
35607;DHT22;21729;58.392;15.656;2023-07-28T01:17:21;12.40;99.90
35607;DHT22;21729;58.392;15.656;2023-07-28T01:19:49;12.50;99.90
35607;DHT22;21729;58.392;15.656;2023-07-28T01:22:51;12.50;99.90
35607;DHT22;21729;58.392;15.656;2023-07-28T01:25:39;12.40;99.90
35607;DHT22;21729;58.392;15.656;2023-07-28T01:28:13;12.40;99.90
35607;DHT22;21729;58.392;15.656;2023-07-28T01:30:40;12.50;99.90
35607;DHT22;21729;58.392;15.656;2023-07-28T01:33:08;12.50;99.90
35607;DHT22;21729;58.392;15.656;2023-07-28T01:35:36;12.50;99.90
35607;DHT22;21729;58.392;15.656;2023-07-28T01:38:03;12.50;99.90
35607;DHT22;21729;58.392;15.656;2023-07-28T01:40:30;12.50;99.90
35607;DHT22;21729;58.392;15.656;2023-07-28T01:42:57;12.50;99.90
35607;DHT22;21729;58.392;15.656;2023-07-28T01:45:26;12.50;99.90
35607;DHT22;21729;58.392;15.656;2023-07-28T01:47:53;12.50;99.90
35607;DHT22;21729;58.392;15.656;2023-07-28T01:50:20;12.60;99.90
35607;DHT22;21729;58.392;15.656;2023-07-28T01:52:47;12.50;99.90
35607;DHT22;21729;58.392;15.656;2023-07-28T01:55:14;12.50;99.90
35607;DHT22;21729;58.392;15.656;2023-07-28T01:57:50;12.40;99.90
35607;DHT22;21729;58.392;15.656;2023-07-28T02:00:18;12.40;99.90
35607;DHT22;21729;58.392;15.656;2023-07-28T02:02:48;12.30;99.90
35607;DHT22;21729;58.392;15.656;2023-07-28T02:05:16;12.20;99.90
35607;DHT22;21729;58.392;15.656;2023-07-28T02:07:43;12.20;99.90
35607;DHT22;21729;58.392;15.656;2023-07-28T02:10:10;12.10;99.90
35607;DHT22;21729;58.392;15.656;2023-07-28T02:12:37;12.10;99.90
35607;DHT22;21729;58.392;15.656;2023-07-28T02:15:07;12.00;99.90
35607;DHT22;21729;58.392;15.656;2023-07-28T02:17:34;11.90;99.90
35607;DHT22;21729;58.392;15.656;2023-07-28T02:20:03;11.90;99.90
35607;DHT22;21729;58.392;15.656;2023-07-28T02:22:31;11.90;99.90
35607;DHT22;21729;58.392;15.656;2023-07-28T02:24:58;12.00;99.90
35607;DHT22;21729;58.392;15.656;2023-07-28T02:27:27;12.00;99.90
35607;DHT22;21729;58.392;15.656;2023-07-28T02:29:55;11.90;99.90
35607;DHT22;21729;58.392;15.656;2023-07-28T02:32:22;12.00;99.90
35607;DHT22;21729;58.392;15.656;2023-07-28T02:34:49;11.90;99.90
35607;DHT22;21729;58.392;15.656;2023-07-28T02:37:18;12.00;99.90
35607;DHT22;21729;58.392;15.656;2023-07-28T02:39:45;11.90;99.90
35607;DHT22;21729;58.392;15.656;2023-07-28T02:42:12;12.00;99.90
35607;DHT22;21729;58.392;15.656;2023-07-28T02:44:39;12.00;99.90
35607;DHT22;21729;58.392;15.656;2023-07-28T02:47:07;12.00;99.90
35607;DHT22;21729;58.392;15.656;2023-07-28T02:49:34;12.10;99.90
35607;DHT22;21729;58.392;15.656;2023-07-28T02:52:01;12.10;99.90
35607;DHT22;21729;58.392;15.656;2023-07-28T02:54:30;12.30;99.90
35607;DHT22;21729;58.392;15.656;2023-07-28T02:56:57;12.30;99.90
35607;DHT22;21729;58.392;15.656;2023-07-28T02:59:24;12.40;99.90
35607;DHT22;21729;58.392;15.656;2023-07-28T03:01:51;12.40;99.90
35607;DHT22;21729;58.392;15.656;2023-07-28T03:04:19;12.40;99.90
35607;DHT22;21729;58.392;15.656;2023-07-28T03:06:47;12.40;99.90
35607;DHT22;21729;58.392;15.656;2023-07-28T03:09:14;12.40;99.90
35607;DHT22;21729;58.392;15.656;2023-07-28T03:11:43;12.40;99.90
35607;DHT22;21729;58.392;15.656;2023-07-28T03:14:10;12.40;99.90
35607;DHT22;21729;58.392;15.656;2023-07-28T03:16:38;12.40;99.90
35607;DHT22;21729;58.392;15.656;2023-07-28T03:19:06;12.50;99.90
35607;DHT22;21729;58.392;15.656;2023-07-28T03:21:33;12.50;99.90
35607;DHT22;21729;58.392;15.656;2023-07-28T03:24:00;12.50;99.90
35607;DHT22;21729;58.392;15.656;2023-07-28T03:26:27;12.50;99.90
35607;DHT22;21729;58.392;15.656;2023-07-28T03:28:56;12.60;99.90
35607;DHT22;21729;58.392;15.656;2023-07-28T03:31:23;12.60;99.90
35607;DHT22;21729;58.392;15.656;2023-07-28T03:33:50;12.70;99.90
35607;DHT22;21729;58.392;15.656;2023-07-28T03:36:17;12.60;99.90
35607;DHT22;21729;58.392;15.656;2023-07-28T03:38:45;12.70;99.90
35607;DHT22;21729;58.392;15.656;2023-07-28T03:41:12;12.60;99.90
35607;DHT22;21729;58.392;15.656;2023-07-28T03:43:40;12.70;99.90
35607;DHT22;21729;58.392;15.656;2023-07-28T03:46:09;12.70;99.90
35607;DHT22;21729;58.392;15.656;2023-07-28T03:48:36;12.70;99.90
35607;DHT22;21729;58.392;15.656;2023-07-28T03:51:03;12.80;99.90
35607;DHT22;21729;58.392;15.656;2023-07-28T03:53:30;12.80;99.90
35607;DHT22;21729;58.392;15.656;2023-07-28T03:56:01;12.80;99.90
35607;DHT22;21729;58.392;15.656;2023-07-28T03:58:28;12.80;99.90
35607;DHT22;21729;58.392;15.656;2023-07-28T04:00:55;12.80;99.90
35607;DHT22;21729;58.392;15.656;2023-07-28T04:03:23;12.90;99.90
35607;DHT22;21729;58.392;15.656;2023-07-28T04:05:51;12.90;99.90
35607;DHT22;21729;58.392;15.656;2023-07-28T04:08:18;13.00;99.90
35607;DHT22;21729;58.392;15.656;2023-07-28T04:10:45;13.00;99.90
35607;DHT22;21729;58.392;15.656;2023-07-28T04:13:12;13.10;99.90
35607;DHT22;21729;58.392;15.656;2023-07-28T04:15:39;13.10;99.90
35607;DHT22;21729;58.392;15.656;2023-07-28T04:18:06;13.30;99.90
35607;DHT22;21729;58.392;15.656;2023-07-28T04:20:35;13.40;99.90
35607;DHT22;21729;58.392;15.656;2023-07-28T04:23:02;13.40;99.90
35607;DHT22;21729;58.392;15.656;2023-07-28T04:25:29;13.70;99.90
35607;DHT22;21729;58.392;15.656;2023-07-28T04:27:56;13.70;99.90
35607;DHT22;21729;58.392;15.656;2023-07-28T04:30:23;13.70;99.90
35607;DHT22;21729;58.392;15.656;2023-07-28T04:32:50;13.70;99.90
35607;DHT22;21729;58.392;15.656;2023-07-28T04:35:18;13.70;99.90
35607;DHT22;21729;58.392;15.656;2023-07-28T04:37:46;13.80;99.90
35607;DHT22;21729;58.392;15.656;2023-07-28T04:40:14;13.60;99.90
35607;DHT22;21729;58.392;15.656;2023-07-28T04:42:41;13.60;99.90
35607;DHT22;21729;58.392;15.656;2023-07-28T04:45:09;13.60;99.90
35607;DHT22;21729;58.392;15.656;2023-07-28T04:47:36;13.50;99.90
35607;DHT22;21729;58.392;15.656;2023-07-28T04:50:03;13.60;99.90
35607;DHT22;21729;58.392;15.656;2023-07-28T04:52:31;13.60;99.90
35607;DHT22;21729;58.392;15.656;2023-07-28T04:54:59;13.60;99.90
35607;DHT22;21729;58.392;15.656;2023-07-28T04:57:26;13.70;99.90
35607;DHT22;21729;58.392;15.656;2023-07-28T04:59:53;13.80;99.90
35607;DHT22;21729;58.392;15.656;2023-07-28T05:02:20;13.70;99.90
35607;DHT22;21729;58.392;15.656;2023-07-28T05:04:48;13.70;99.90
35607;DHT22;21729;58.392;15.656;2023-07-28T05:07:15;13.70;99.90
35607;DHT22;21729;58.392;15.656;2023-07-28T05:09:42;13.70;99.90
35607;DHT22;21729;58.392;15.656;2023-07-28T05:12:11;13.60;99.90
35607;DHT22;21729;58.392;15.656;2023-07-28T05:14:38;13.70;99.90
35607;DHT22;21729;58.392;15.656;2023-07-28T05:17:06;13.60;99.90
35607;DHT22;21729;58.392;15.656;2023-07-28T05:19:34;13.60;99.90
35607;DHT22;21729;58.392;15.656;2023-07-28T05:22:01;13.70;99.90
35607;DHT22;21729;58.392;15.656;2023-07-28T05:24:28;13.60;99.90
35607;DHT22;21729;58.392;15.656;2023-07-28T05:26:55;13.70;99.90
35607;DHT22;21729;58.392;15.656;2023-07-28T05:29:24;13.90;99.90
35607;DHT22;21729;58.392;15.656;2023-07-28T05:31:51;14.10;99.90
35607;DHT22;21729;58.392;15.656;2023-07-28T05:34:18;14.40;99.90
35607;DHT22;21729;58.392;15.656;2023-07-28T05:36:45;14.70;99.90
35607;DHT22;21729;58.392;15.656;2023-07-28T05:39:12;14.90;1.00
35607;DHT22;21729;58.392;15.656;2023-07-28T05:41:39;15.50;1.00
35607;DHT22;21729;58.392;15.656;2023-07-28T05:44:06;16.00;1.00
35607;DHT22;21729;58.392;15.656;2023-07-28T05:46:35;16.10;99.90
35607;DHT22;21729;58.392;15.656;2023-07-28T05:49:02;16.30;99.90
35607;DHT22;21729;58.392;15.656;2023-07-28T05:51:29;16.70;99.90
35607;DHT22;21729;58.392;15.656;2023-07-28T05:53:56;16.60;99.90
35607;DHT22;21729;58.392;15.656;2023-07-28T05:56:23;17.60;16.30
35607;DHT22;21729;58.392;15.656;2023-07-28T05:58:50;17.40;1.00
35607;DHT22;21729;58.392;15.656;2023-07-28T06:01:17;16.60;1.00
35607;DHT22;21729;58.392;15.656;2023-07-28T06:03:46;17.40;77.90
35607;DHT22;21729;58.392;15.656;2023-07-28T06:06:14;19.10;1.00
35607;DHT22;21729;58.392;15.656;2023-07-28T06:08:41;18.20;1.00
35607;DHT22;21729;58.392;15.656;2023-07-28T06:11:08;17.10;1.00
35607;DHT22;21729;58.392;15.656;2023-07-28T06:13:35;16.50;1.00
35607;DHT22;21729;58.392;15.656;2023-07-28T06:16:02;16.00;99.90
35607;DHT22;21729;58.392;15.656;2023-07-28T06:18:29;15.90;99.90
35607;DHT22;21729;58.392;15.656;2023-07-28T06:20:58;15.70;99.90
35607;DHT22;21729;58.392;15.656;2023-07-28T06:23:25;15.80;1.00
35607;DHT22;21729;58.392;15.656;2023-07-28T06:25:53;15.80;99.90
35607;DHT22;21729;58.392;15.656;2023-07-28T06:28:20;16.60;99.90
35607;DHT22;21729;58.392;15.656;2023-07-28T06:30:52;16.00;99.90
35607;DHT22;21729;58.392;15.656;2023-07-28T06:33:19;15.70;99.90
35607;DHT22;21729;58.392;15.656;2023-07-28T06:35:46;15.50;1.00
35607;DHT22;21729;58.392;15.656;2023-07-28T06:38:15;15.60;1.00
35607;DHT22;21729;58.392;15.656;2023-07-28T06:40:42;16.10;1.40
35607;DHT22;21729;58.392;15.656;2023-07-28T06:43:10;16.40;99.90
35607;DHT22;21729;58.392;15.656;2023-07-28T06:45:38;17.60;7.70
35607;DHT22;21729;58.392;15.656;2023-07-28T06:48:05;16.80;99.90
35607;DHT22;21729;58.392;15.656;2023-07-28T06:50:32;16.40;99.90
35607;DHT22;21729;58.392;15.656;2023-07-28T06:52:59;16.00;99.90
35607;DHT22;21729;58.392;15.656;2023-07-28T06:55:28;15.80;1.00
35607;DHT22;21729;58.392;15.656;2023-07-28T06:57:55;15.90;1.00
35607;DHT22;21729;58.392;15.656;2023-07-28T07:00:22;15.70;1.00
35607;DHT22;21729;58.392;15.656;2023-07-28T07:02:49;15.70;1.00
35607;DHT22;21729;58.392;15.656;2023-07-28T07:05:16;15.70;1.00
35607;DHT22;21729;58.392;15.656;2023-07-28T07:07:44;16.40;99.90
35607;DHT22;21729;58.392;15.656;2023-07-28T07:10:11;16.30;99.90
35607;DHT22;21729;58.392;15.656;2023-07-28T07:12:39;16.00;99.90
35607;DHT22;21729;58.392;15.656;2023-07-28T07:15:07;15.70;99.90
35607;DHT22;21729;58.392;15.656;2023-07-28T07:17:35;15.70;1.00
35607;DHT22;21729;58.392;15.656;2023-07-28T07:20:02;15.60;1.00
35607;DHT22;21729;58.392;15.656;2023-07-28T07:22:30;15.70;1.00
35607;DHT22;21729;58.392;15.656;2023-07-28T07:24:57;15.70;1.00
35607;DHT22;21729;58.392;15.656;2023-07-28T07:27:24;15.70;99.90
35607;DHT22;21729;58.392;15.656;2023-07-28T07:29:53;15.70;1.00
35607;DHT22;21729;58.392;15.656;2023-07-28T07:32:20;15.70;1.00
35607;DHT22;21729;58.392;15.656;2023-07-28T07:34:47;15.50;1.00
35607;DHT22;21729;58.392;15.656;2023-07-28T07:37:14;15.50;1.00
35607;DHT22;21729;58.392;15.656;2023-07-28T07:39:41;15.40;1.00
35607;DHT22;21729;58.392;15.656;2023-07-28T07:42:10;15.40;99.90
35607;DHT22;21729;58.392;15.656;2023-07-28T07:44:39;15.50;99.90
35607;DHT22;21729;58.392;15.656;2023-07-28T07:47:13;17.20;99.90
35607;DHT22;21729;58.392;15.656;2023-07-28T07:49:41;20.50;99.90
35607;DHT22;21729;58.392;15.656;2023-07-28T07:52:08;21.50;99.90
35607;DHT22;21729;58.392;15.656;2023-07-28T07:54:36;19.90;99.90
35607;DHT22;21729;58.392;15.656;2023-07-28T07:57:03;21.30;99.90
35607;DHT22;21729;58.392;15.656;2023-07-28T07:59:30;23.00;1.00
35607;DHT22;21729;58.392;15.656;2023-07-28T08:01:59;23.80;1.00
35607;DHT22;21729;58.392;15.656;2023-07-28T08:04:29;24.70;99.90
35607;DHT22;21729;58.392;15.656;2023-07-28T08:06:57;22.90;99.90
35607;DHT22;21729;58.392;15.656;2023-07-28T08:09:24;23.90;99.90
35607;DHT22;21729;58.392;15.656;2023-07-28T08:11:51;22.50;1.00
35607;DHT22;21729;58.392;15.656;2023-07-28T08:14:19;21.10;1.00
35607;DHT22;21729;58.392;15.656;2023-07-28T08:16:46;20.00;1.00
35607;DHT22;21729;58.392;15.656;2023-07-28T08:19:13;21.20;1.00
35607;DHT22;21729;58.392;15.656;2023-07-28T08:21:42;21.80;1.00
35607;DHT22;21729;58.392;15.656;2023-07-28T08:24:09;23.20;99.90
35607;DHT22;21729;58.392;15.656;2023-07-28T08:26:37;22.00;1.00
35607;DHT22;21729;58.392;15.656;2023-07-28T08:29:04;20.50;1.00
35607;DHT22;21729;58.392;15.656;2023-07-28T08:31:31;19.20;1.00
35607;DHT22;21729;58.392;15.656;2023-07-28T08:33:58;18.80;99.90
35607;DHT22;21729;58.392;15.656;2023-07-28T08:36:26;18.70;82.70
35607;DHT22;21729;58.392;15.656;2023-07-28T08:38:55;20.00;49.90
35607;DHT22;21729;58.392;15.656;2023-07-28T08:41:22;19.60;12.90
35607;DHT22;21729;58.392;15.656;2023-07-28T08:43:49;18.60;33.90
35607;DHT22;21729;58.392;15.656;2023-07-28T08:46:17;18.10;99.90
35607;DHT22;21729;58.392;15.656;2023-07-28T08:48:44;17.30;99.90
35607;DHT22;21729;58.392;15.656;2023-07-28T08:51:12;19.00;99.90
35607;DHT22;21729;58.392;15.656;2023-07-28T08:53:40;21.70;1.00
35607;DHT22;21729;58.392;15.656;2023-07-28T08:56:08;23.20;99.90
35607;DHT22;21729;58.392;15.656;2023-07-28T08:58:36;22.90;99.90
35607;DHT22;21729;58.392;15.656;2023-07-28T09:01:03;20.10;1.00
35607;DHT22;21729;58.392;15.656;2023-07-28T09:03:30;18.70;1.00
35607;DHT22;21729;58.392;15.656;2023-07-28T09:06:00;17.80;72.70
35607;DHT22;21729;58.392;15.656;2023-07-28T09:08:28;18.10;99.90
35607;DHT22;21729;58.392;15.656;2023-07-28T09:11:02;22.00;1.00
35607;DHT22;21729;58.392;15.656;2023-07-28T09:13:36;23.20;99.90
35607;DHT22;21729;58.392;15.656;2023-07-28T09:16:05;22.30;99.90
35607;DHT22;21729;58.392;15.656;2023-07-28T09:18:32;21.70;99.90
35607;DHT22;21729;58.392;15.656;2023-07-28T09:20:59;22.80;99.90
35607;DHT22;21729;58.392;15.656;2023-07-28T09:23:30;24.60;99.90
35607;DHT22;21729;58.392;15.656;2023-07-28T09:26:00;24.60;99.90
35607;DHT22;21729;58.392;15.656;2023-07-28T09:28:38;25.20;99.90
35607;DHT22;21729;58.392;15.656;2023-07-28T09:31:05;25.80;99.90
35607;DHT22;21729;58.392;15.656;2023-07-28T09:33:35;26.00;99.90
35607;DHT22;21729;58.392;15.656;2023-07-28T09:36:08;24.40;99.90
35607;DHT22;21729;58.392;15.656;2023-07-28T09:38:37;25.20;99.90
35607;DHT22;21729;58.392;15.656;2023-07-28T09:41:06;26.00;99.90
35607;DHT22;21729;58.392;15.656;2023-07-28T09:43:37;26.70;99.90
35607;DHT22;21729;58.392;15.656;2023-07-28T09:46:07;27.60;43.40
35607;DHT22;21729;58.392;15.656;2023-07-28T09:48:37;27.80;87.70
35607;DHT22;21729;58.392;15.656;2023-07-28T09:51:08;27.70;16.90
35607;DHT22;21729;58.392;15.656;2023-07-28T09:53:46;27.10;6.10
35607;DHT22;21729;58.392;15.656;2023-07-28T09:56:14;25.00;62.90
35607;DHT22;21729;58.392;15.656;2023-07-28T09:58:49;23.40;99.90
35607;DHT22;21729;58.392;15.656;2023-07-28T10:01:17;22.80;99.90
35607;DHT22;21729;58.392;15.656;2023-07-28T10:03:45;22.00;99.90
35607;DHT22;21729;58.392;15.656;2023-07-28T10:06:14;21.80;99.90
35607;DHT22;21729;58.392;15.656;2023-07-28T10:08:42;20.90;99.90
35607;DHT22;21729;58.392;15.656;2023-07-28T10:11:10;21.60;99.90
35607;DHT22;21729;58.392;15.656;2023-07-28T10:13:43;22.10;99.90
35607;DHT22;21729;58.392;15.656;2023-07-28T10:16:12;22.00;99.90
35607;DHT22;21729;58.392;15.656;2023-07-28T10:18:40;22.70;99.90
35607;DHT22;21729;58.392;15.656;2023-07-28T10:21:10;23.50;99.90
35607;DHT22;21729;58.392;15.656;2023-07-28T10:23:42;23.60;99.90
35607;DHT22;21729;58.392;15.656;2023-07-28T10:26:10;23.00;99.90
35607;DHT22;21729;58.392;15.656;2023-07-28T10:28:38;23.00;99.90
35607;DHT22;21729;58.392;15.656;2023-07-28T10:31:09;22.00;99.90
35607;DHT22;21729;58.392;15.656;2023-07-28T10:33:38;21.70;99.90
35607;DHT22;21729;58.392;15.656;2023-07-28T10:36:12;21.30;99.90
35607;DHT22;21729;58.392;15.656;2023-07-28T10:38:40;21.80;99.90
35607;DHT22;21729;58.392;15.656;2023-07-28T10:41:13;21.30;99.90
35607;DHT22;21729;58.392;15.656;2023-07-28T10:43:41;21.00;99.90
35607;DHT22;21729;58.392;15.656;2023-07-28T10:46:11;21.00;99.90
35607;DHT22;21729;58.392;15.656;2023-07-28T10:48:42;20.90;99.90
35607;DHT22;21729;58.392;15.656;2023-07-28T10:51:10;21.00;99.90
35607;DHT22;21729;58.392;15.656;2023-07-28T10:53:38;20.70;99.90
35607;DHT22;21729;58.392;15.656;2023-07-28T10:56:05;20.80;99.90
35607;DHT22;21729;58.392;15.656;2023-07-28T10:58:35;21.50;99.90
35607;DHT22;21729;58.392;15.656;2023-07-28T11:01:03;21.30;99.90
35607;DHT22;21729;58.392;15.656;2023-07-28T11:03:31;21.50;99.90
35607;DHT22;21729;58.392;15.656;2023-07-28T11:05:59;21.40;99.90
35607;DHT22;21729;58.392;15.656;2023-07-28T11:08:26;20.70;99.90
35607;DHT22;21729;58.392;15.656;2023-07-28T11:10:53;20.40;99.90
35607;DHT22;21729;58.392;15.656;2023-07-28T11:13:22;20.20;99.90
35607;DHT22;21729;58.392;15.656;2023-07-28T11:15:51;20.20;99.90
35607;DHT22;21729;58.392;15.656;2023-07-28T11:18:19;20.50;99.90
35607;DHT22;21729;58.392;15.656;2023-07-28T11:20:48;20.40;99.90
35607;DHT22;21729;58.392;15.656;2023-07-28T11:23:15;20.80;99.90
35607;DHT22;21729;58.392;15.656;2023-07-28T11:25:43;21.20;99.90
35607;DHT22;21729;58.392;15.656;2023-07-28T11:28:13;20.90;99.90
35607;DHT22;21729;58.392;15.656;2023-07-28T11:30:40;20.90;99.90
35607;DHT22;21729;58.392;15.656;2023-07-28T11:33:09;20.50;99.90
35607;DHT22;21729;58.392;15.656;2023-07-28T11:35:38;20.60;99.90
35607;DHT22;21729;58.392;15.656;2023-07-28T11:38:07;20.70;99.90
35607;DHT22;21729;58.392;15.656;2023-07-28T11:40:35;20.90;99.90
35607;DHT22;21729;58.392;15.656;2023-07-28T11:43:03;20.60;99.90
35607;DHT22;21729;58.392;15.656;2023-07-28T11:45:30;20.80;99.90
35607;DHT22;21729;58.392;15.656;2023-07-28T11:47:59;20.40;99.90
35607;DHT22;21729;58.392;15.656;2023-07-28T11:50:28;20.30;99.90
35607;DHT22;21729;58.392;15.656;2023-07-28T11:52:56;20.20;99.90
35607;DHT22;21729;58.392;15.656;2023-07-28T11:55:25;20.00;99.90
35607;DHT22;21729;58.392;15.656;2023-07-28T11:57:53;19.70;99.90
35607;DHT22;21729;58.392;15.656;2023-07-28T12:00:28;19.70;99.90
35607;DHT22;21729;58.392;15.656;2023-07-28T12:03:05;19.30;99.90
35607;DHT22;21729;58.392;15.656;2023-07-28T12:05:35;19.00;99.90
35607;DHT22;21729;58.392;15.656;2023-07-28T12:08:03;19.00;99.90
35607;DHT22;21729;58.392;15.656;2023-07-28T12:10:32;19.70;99.90
35607;DHT22;21729;58.392;15.656;2023-07-28T12:13:04;20.00;99.90
35607;DHT22;21729;58.392;15.656;2023-07-28T12:15:32;20.20;99.90
35607;DHT22;21729;58.392;15.656;2023-07-28T12:18:05;19.90;99.90
35607;DHT22;21729;58.392;15.656;2023-07-28T12:20:34;20.20;99.90
35607;DHT22;21729;58.392;15.656;2023-07-28T12:23:03;20.10;99.90
35607;DHT22;21729;58.392;15.656;2023-07-28T12:25:32;20.70;99.90
35607;DHT22;21729;58.392;15.656;2023-07-28T12:27:59;20.70;99.90
35607;DHT22;21729;58.392;15.656;2023-07-28T12:30:26;20.80;99.90
35607;DHT22;21729;58.392;15.656;2023-07-28T12:32:53;20.80;99.90
35607;DHT22;21729;58.392;15.656;2023-07-28T12:35:21;21.00;99.90
35607;DHT22;21729;58.392;15.656;2023-07-28T12:37:49;20.40;99.90
35607;DHT22;21729;58.392;15.656;2023-07-28T12:40:17;19.90;99.90
35607;DHT22;21729;58.392;15.656;2023-07-28T12:42:47;19.70;99.90
35607;DHT22;21729;58.392;15.656;2023-07-28T12:45:15;19.70;99.90
35607;DHT22;21729;58.392;15.656;2023-07-28T12:47:42;19.40;99.90
35607;DHT22;21729;58.392;15.656;2023-07-28T12:50:10;18.80;99.90
35607;DHT22;21729;58.392;15.656;2023-07-28T12:52:37;18.70;99.90
35607;DHT22;21729;58.392;15.656;2023-07-28T12:55:05;18.30;99.90
35607;DHT22;21729;58.392;15.656;2023-07-28T12:57:32;18.00;99.90
35607;DHT22;21729;58.392;15.656;2023-07-28T13:00:00;18.00;99.90
35607;DHT22;21729;58.392;15.656;2023-07-28T13:02:33;18.20;99.90
35607;DHT22;21729;58.392;15.656;2023-07-28T13:05:00;18.30;99.90
35607;DHT22;21729;58.392;15.656;2023-07-28T13:07:27;18.20;99.90
35607;DHT22;21729;58.392;15.656;2023-07-28T13:09:55;18.20;99.90
35607;DHT22;21729;58.392;15.656;2023-07-28T13:12:22;18.10;99.90
35607;DHT22;21729;58.392;15.656;2023-07-28T13:14:50;18.00;99.90
35607;DHT22;21729;58.392;15.656;2023-07-28T13:17:18;18.20;99.90
35607;DHT22;21729;58.392;15.656;2023-07-28T13:19:45;18.20;99.90
35607;DHT22;21729;58.392;15.656;2023-07-28T13:22:12;18.00;1.00
35607;DHT22;21729;58.392;15.656;2023-07-28T13:24:40;17.70;1.00
35607;DHT22;21729;58.392;15.656;2023-07-28T13:27:07;17.50;99.90
35607;DHT22;21729;58.392;15.656;2023-07-28T13:29:34;17.20;99.90
35607;DHT22;21729;58.392;15.656;2023-07-28T13:32:01;17.10;99.90
35607;DHT22;21729;58.392;15.656;2023-07-28T13:34:30;17.20;1.00
35607;DHT22;21729;58.392;15.656;2023-07-28T13:36:57;17.30;1.00
35607;DHT22;21729;58.392;15.656;2023-07-28T13:39:24;17.40;1.00
35607;DHT22;21729;58.392;15.656;2023-07-28T13:41:51;17.70;1.00
35607;DHT22;21729;58.392;15.656;2023-07-28T13:44:18;17.90;99.90
35607;DHT22;21729;58.392;15.656;2023-07-28T13:46:45;17.90;1.00
35607;DHT22;21729;58.392;15.656;2023-07-28T13:49:12;17.40;1.00
35607;DHT22;21729;58.392;15.656;2023-07-28T13:51:41;17.30;1.00
35607;DHT22;21729;58.392;15.656;2023-07-28T13:54:09;17.20;1.00
35607;DHT22;21729;58.392;15.656;2023-07-28T13:56:36;17.30;1.00
35607;DHT22;21729;58.392;15.656;2023-07-28T13:59:04;17.30;1.00
35607;DHT22;21729;58.392;15.656;2023-07-28T14:01:31;17.20;99.90
35607;DHT22;21729;58.392;15.656;2023-07-28T14:03:58;17.40;1.40
35607;DHT22;21729;58.392;15.656;2023-07-28T14:06:25;17.40;99.90
35607;DHT22;21729;58.392;15.656;2023-07-28T14:08:54;17.30;99.90
35607;DHT22;21729;58.392;15.656;2023-07-28T14:11:21;17.40;99.90
35607;DHT22;21729;58.392;15.656;2023-07-28T14:13:48;17.10;99.90
35607;DHT22;21729;58.392;15.656;2023-07-28T14:16:15;16.70;99.90
35607;DHT22;21729;58.392;15.656;2023-07-28T14:18:42;16.50;99.90
35607;DHT22;21729;58.392;15.656;2023-07-28T14:21:13;16.40;99.90
35607;DHT22;21729;58.392;15.656;2023-07-28T14:23:40;16.40;1.00
35607;DHT22;21729;58.392;15.656;2023-07-28T14:26:09;16.30;1.00
35607;DHT22;21729;58.392;15.656;2023-07-28T14:28:36;16.30;1.00
35607;DHT22;21729;58.392;15.656;2023-07-28T14:31:03;16.20;1.00
35607;DHT22;21729;58.392;15.656;2023-07-28T14:33:30;16.10;1.00
35607;DHT22;21729;58.392;15.656;2023-07-28T14:35:57;16.10;1.00
35607;DHT22;21729;58.392;15.656;2023-07-28T14:38:24;16.10;1.00
35607;DHT22;21729;58.392;15.656;2023-07-28T14:40:51;16.10;1.00
35607;DHT22;21729;58.392;15.656;2023-07-28T14:43:20;16.30;99.90
35607;DHT22;21729;58.392;15.656;2023-07-28T14:45:49;16.30;2.20
35607;DHT22;21729;58.392;15.656;2023-07-28T14:48:16;16.50;20.90
35607;DHT22;21729;58.392;15.656;2023-07-28T14:50:43;16.80;76.90
35607;DHT22;21729;58.392;15.656;2023-07-28T14:53:30;16.60;1.00
35607;DHT22;21729;58.392;15.656;2023-07-28T14:55:58;17.00;1.00
35607;DHT22;21729;58.392;15.656;2023-07-28T14:58:27;17.10;1.00
35607;DHT22;21729;58.392;15.656;2023-07-28T15:00:54;17.30;1.00
35607;DHT22;21729;58.392;15.656;2023-07-28T15:03:22;17.40;1.00
35607;DHT22;21729;58.392;15.656;2023-07-28T15:05:49;17.40;1.00
35607;DHT22;21729;58.392;15.656;2023-07-28T15:08:16;17.60;1.00
35607;DHT22;21729;58.392;15.656;2023-07-28T15:10:43;17.80;1.00
35607;DHT22;21729;58.392;15.656;2023-07-28T15:13:10;17.80;1.00
35607;DHT22;21729;58.392;15.656;2023-07-28T15:15:38;17.70;1.00
35607;DHT22;21729;58.392;15.656;2023-07-28T15:18:05;17.50;1.00
35607;DHT22;21729;58.392;15.656;2023-07-28T15:20:33;17.50;1.00
35607;DHT22;21729;58.392;15.656;2023-07-28T15:23:00;17.50;1.00
35607;DHT22;21729;58.392;15.656;2023-07-28T15:25:27;17.60;1.00